createdAt,value
2022-10-28T00:00:57.523Z,28.70
2022-10-28T00:03:25.887Z,27.07
2022-10-28T00:05:54.988Z,27.30
2022-10-28T00:08:23.508Z,29.10
2022-10-28T00:10:52.663Z,25.90
2022-10-28T00:13:21.023Z,29.20
2022-10-28T00:15:50.768Z,28.07
2022-10-28T00:18:19.140Z,29.07
2022-10-28T00:20:47.487Z,22.97
2022-10-28T00:23:15.856Z,28.93
2022-10-28T00:25:44.197Z,25.33
2022-10-28T00:28:12.557Z,27.53
2022-10-28T00:30:40.885Z,24.23
2022-10-28T00:33:10.642Z,26.80
2022-10-28T00:35:39.029Z,27.80
2022-10-28T00:38:07.378Z,27.47
2022-10-28T00:40:36.162Z,27.37
2022-10-28T00:43:04.538Z,29.60
2022-10-28T00:45:32.873Z,26.30
2022-10-28T00:48:02.745Z,23.43
2022-10-28T00:50:39.309Z,27.70
2022-10-28T00:53:11.710Z,31.93
2022-10-28T00:55:40.172Z,30.33
2022-10-28T00:58:09.509Z,25.83
2022-10-28T01:00:37.919Z,31.33
2022-10-28T01:03:06.359Z,32.80
2022-10-28T01:05:38.805Z,31.60
2022-10-28T01:08:07.627Z,32.70
2022-10-28T01:10:41.526Z,27.90
2022-10-28T01:13:13.119Z,28.67
2022-10-28T01:15:45.062Z,33.47
2022-10-28T01:18:19.158Z,30.00
2022-10-28T01:21:06.185Z,27.43
2022-10-28T01:23:38.083Z,31.57
2022-10-28T01:26:25.661Z,30.80
2022-10-28T01:29:03.751Z,30.53
2022-10-28T01:31:38.088Z,29.53
2022-10-28T01:34:11.053Z,26.53
2022-10-28T01:36:42.316Z,31.90
2022-10-28T01:39:15.965Z,26.57
2022-10-28T01:41:49.115Z,28.40
2022-10-28T01:44:21.852Z,29.50
2022-10-28T01:46:53.577Z,23.43
2022-10-28T01:49:24.828Z,30.33
2022-10-28T01:51:55.586Z,25.20
2022-10-28T01:54:25.796Z,24.80
2022-10-28T01:56:55.260Z,31.53
2022-10-28T01:59:24.983Z,24.20
2022-10-28T02:01:55.573Z,29.60
2022-10-28T02:04:24.052Z,26.97
2022-10-28T02:06:53.868Z,26.87
2022-10-28T02:09:28.067Z,26.63
2022-10-28T02:12:05.902Z,21.70
2022-10-28T02:14:46.776Z,22.43
2022-10-28T02:17:21.559Z,26.77
2022-10-28T02:19:53.277Z,26.63
2022-10-28T02:22:24.636Z,23.27
2022-10-28T02:24:57.110Z,24.80
2022-10-28T02:27:31.176Z,28.53
2022-10-28T02:30:02.332Z,26.07
2022-10-28T02:32:33.922Z,34.33
2022-10-28T02:35:03.981Z,22.57
2022-10-28T02:37:34.744Z,25.93
2022-10-28T02:40:05.750Z,25.53
2022-10-28T02:42:37.163Z,28.40
2022-10-28T02:45:08.042Z,30.73
2022-10-28T02:47:40.802Z,22.33
2022-10-28T02:50:11.399Z,25.20
2022-10-28T02:52:41.972Z,26.40
2022-10-28T02:55:10.587Z,26.40
2022-10-28T02:57:40.481Z,28.23
2022-10-28T03:00:10.317Z,21.67
2022-10-28T03:02:40.055Z,28.60
2022-10-28T03:05:08.756Z,23.53
2022-10-28T03:07:37.137Z,22.67
2022-10-28T03:10:05.606Z,27.47
2022-10-28T03:12:33.972Z,26.27
2022-10-28T03:15:03.068Z,24.83
2022-10-28T03:17:31.495Z,25.70
2022-10-28T03:20:01.286Z,22.73
2022-10-28T03:22:29.636Z,21.60
2022-10-28T03:24:58.179Z,24.17
2022-10-28T03:27:26.551Z,24.10
2022-10-28T03:29:54.911Z,24.50
2022-10-28T03:32:23.302Z,21.00
2022-10-28T03:34:51.663Z,19.00
2022-10-28T03:37:21.392Z,21.83
2022-10-28T03:39:49.774Z,27.13
2022-10-28T03:42:18.136Z,21.33
2022-10-28T03:44:46.479Z,20.77
2022-10-28T03:47:15.493Z,19.87
2022-10-28T03:49:43.809Z,22.73
2022-10-28T03:52:12.224Z,30.80
2022-10-28T03:54:41.987Z,25.73
2022-10-28T03:57:10.344Z,22.47
2022-10-28T03:59:38.704Z,21.03
2022-10-28T04:02:07.234Z,21.20
2022-10-28T04:04:35.748Z,55.13
2022-10-28T04:07:04.117Z,74.53
2022-10-28T04:09:32.472Z,26.97
2022-10-28T04:12:02.214Z,20.43
2022-10-28T04:14:30.595Z,19.13
2022-10-28T04:16:58.935Z,23.93
2022-10-28T04:19:27.246Z,21.43
2022-10-28T04:21:55.640Z,18.63
2022-10-28T04:24:23.993Z,18.93
2022-10-28T04:26:52.322Z,20.03
2022-10-28T04:29:22.052Z,20.27
2022-10-28T04:31:52.226Z,21.43
2022-10-28T04:34:20.841Z,19.30
2022-10-28T04:36:49.261Z,22.70
2022-10-28T04:39:17.760Z,22.10
2022-10-28T04:41:46.169Z,19.40
2022-10-28T04:44:14.545Z,20.67
2022-10-28T04:46:44.339Z,23.70
2022-10-28T04:49:12.715Z,22.17
2022-10-28T04:51:41.105Z,31.37
2022-10-28T04:54:10.321Z,24.67
2022-10-28T04:56:38.684Z,25.53
2022-10-28T04:59:07.039Z,19.47
2022-10-28T05:01:35.556Z,27.87
2022-10-28T05:04:05.994Z,18.10
2022-10-28T05:06:34.352Z,24.90
2022-10-28T05:09:02.701Z,22.03
2022-10-28T05:11:31.155Z,17.43
2022-10-28T05:13:59.505Z,18.30
2022-10-28T05:16:27.887Z,18.27
2022-10-28T05:18:56.344Z,20.63
2022-10-28T05:21:26.102Z,21.67
2022-10-28T05:23:54.637Z,21.03
2022-10-28T05:26:23.020Z,24.23
2022-10-28T05:28:51.763Z,23.67
2022-10-28T05:31:20.365Z,26.43
2022-10-28T05:33:48.726Z,21.37
2022-10-28T05:36:17.114Z,24.47
2022-10-28T05:38:46.854Z,22.97
2022-10-28T05:41:15.250Z,24.63
2022-10-28T05:43:43.617Z,32.40
2022-10-28T05:46:12.082Z,25.97
2022-10-28T05:48:40.407Z,23.13
2022-10-28T05:51:08.745Z,29.60
2022-10-28T05:53:37.130Z,33.83
2022-10-28T05:56:07.037Z,33.47
2022-10-28T05:58:35.420Z,29.60
2022-10-28T06:01:03.829Z,28.17
2022-10-28T06:03:32.319Z,29.97
2022-10-28T06:06:00.829Z,29.13
2022-10-28T06:08:30.618Z,27.73
2022-10-28T06:10:57.504Z,31.43
2022-10-28T06:13:27.308Z,36.10
2022-10-28T06:15:56.491Z,33.30
2022-10-28T06:18:24.991Z,33.40
2022-10-28T06:20:54.457Z,26.37
2022-10-28T06:23:22.941Z,37.57
2022-10-28T06:25:51.642Z,33.10
2022-10-28T06:28:20.004Z,28.70
2022-10-28T06:30:49.761Z,29.10
2022-10-28T06:33:18.176Z,32.53
2022-10-28T06:35:46.604Z,30.30
2022-10-28T06:38:14.978Z,26.57
2022-10-28T06:40:43.356Z,28.10
2022-10-28T06:43:12.992Z,24.10
2022-10-28T06:45:41.371Z,29.30
2022-10-28T06:48:13.254Z,17.07
2022-10-28T06:50:41.618Z,29.67
2022-10-28T06:53:11.038Z,19.87
2022-10-28T06:55:39.395Z,17.50
2022-10-28T06:58:07.846Z,21.33
2022-10-28T07:00:36.559Z,21.97
2022-10-28T07:03:04.922Z,18.37
2022-10-28T07:05:34.786Z,23.30
2022-10-28T07:08:03.167Z,17.23
2022-10-28T07:10:31.539Z,22.33
2022-10-28T07:12:59.892Z,25.23
2022-10-28T07:15:28.245Z,28.93
2022-10-28T07:17:57.057Z,20.67
2022-10-28T07:20:26.234Z,22.97
2022-10-28T07:22:59.248Z,22.20
2022-10-28T07:25:27.771Z,18.80
2022-10-28T07:27:58.196Z,18.67
2022-10-28T07:30:26.667Z,23.03
2022-10-28T07:32:55.241Z,21.03
2022-10-28T07:35:23.902Z,19.27
2022-10-28T07:37:52.300Z,23.40
2022-10-28T07:40:22.063Z,22.83
2022-10-28T07:42:50.392Z,20.43
2022-10-28T07:45:18.978Z,21.97
2022-10-28T07:47:47.351Z,27.80
2022-10-28T07:50:15.853Z,18.37
2022-10-28T07:52:44.210Z,18.47
2022-10-28T07:55:13.056Z,23.83
2022-10-28T07:57:42.812Z,21.00
2022-10-28T08:00:11.965Z,27.57
2022-10-28T08:02:40.704Z,33.60
2022-10-28T08:05:09.377Z,30.43
2022-10-28T08:07:38.872Z,23.57
2022-10-28T08:10:08.302Z,23.47
2022-10-28T08:12:36.677Z,22.70
2022-10-28T08:15:09.456Z,24.73
2022-10-28T08:17:37.872Z,26.70
2022-10-28T08:20:06.655Z,22.13
2022-10-28T08:22:35.015Z,23.80
2022-10-28T08:25:03.552Z,25.63
2022-10-28T08:27:32.422Z,27.70
2022-10-28T08:30:00.743Z,24.77
2022-10-28T08:32:30.485Z,26.33
2022-10-28T08:34:58.828Z,29.93
2022-10-28T08:37:27.320Z,24.07
2022-10-28T08:39:55.759Z,26.80
2022-10-28T08:42:30.778Z,27.50
2022-10-28T08:45:05.139Z,24.53
2022-10-28T08:47:47.853Z,30.63
2022-10-28T08:50:18.225Z,30.93
2022-10-28T08:52:50.214Z,23.87
2022-10-28T08:55:21.038Z,26.67
2022-10-28T08:57:52.937Z,28.73
2022-10-28T09:00:23.838Z,35.03
2022-10-28T09:03:01.356Z,24.97
2022-10-28T09:05:29.889Z,29.27
2022-10-28T09:07:59.126Z,29.90
2022-10-28T09:10:36.437Z,26.80
2022-10-28T09:13:09.053Z,26.70
2022-10-28T09:18:19.817Z,28.73
2022-10-28T09:20:52.884Z,31.70
2022-10-28T09:23:24.478Z,30.67
2022-10-28T09:25:58.303Z,30.03
2022-10-28T09:28:33.621Z,34.27
2022-10-28T09:31:06.370Z,38.37
2022-10-28T09:33:44.676Z,38.17
2022-10-28T09:36:14.974Z,28.67
2022-10-28T09:38:44.275Z,32.23
2022-10-28T09:41:15.258Z,28.73
2022-10-28T09:43:47.662Z,26.10
2022-10-28T09:46:17.269Z,29.90
2022-10-28T09:48:48.204Z,36.77
2022-10-28T09:51:26.175Z,37.07
2022-10-28T09:53:56.986Z,35.23
2022-10-28T09:56:25.403Z,34.77
2022-10-28T09:58:54.544Z,36.00
2022-10-28T10:01:23.068Z,34.27
2022-10-28T10:03:53.540Z,33.47
2022-10-28T10:06:24.630Z,34.60
2022-10-28T10:08:53.866Z,43.33
2022-10-28T10:11:27.173Z,34.20
2022-10-28T10:13:56.051Z,43.20
2022-10-28T10:16:28.338Z,43.73
2022-10-28T10:18:59.597Z,51.13
2022-10-28T10:21:42.228Z,48.03
2022-10-28T10:24:23.578Z,47.20
2022-10-28T10:26:52.635Z,51.30
2022-10-28T10:29:21.463Z,62.50
2022-10-28T10:31:50.029Z,53.30
2022-10-28T10:34:25.331Z,48.60
2022-10-28T10:36:56.117Z,53.93
2022-10-28T10:39:26.590Z,53.27
2022-10-28T10:41:56.423Z,53.70
2022-10-28T10:44:33.591Z,54.47
2022-10-28T10:47:20.732Z,46.87
2022-10-28T10:49:52.161Z,45.33
2022-10-28T10:52:22.801Z,51.90
2022-10-28T10:54:59.864Z,52.87
2022-10-28T10:57:28.812Z,57.43
2022-10-28T10:59:58.499Z,53.97
2022-10-28T11:02:28.954Z,52.30
2022-10-28T11:05:00.526Z,47.03
2022-10-28T11:07:30.114Z,56.60
2022-10-28T11:09:58.544Z,56.57
2022-10-28T11:12:28.436Z,52.70
2022-10-28T11:14:57.900Z,50.17
2022-10-28T11:17:27.531Z,50.03
2022-10-28T11:19:57.509Z,53.50
2022-10-28T11:22:41.181Z,54.57
2022-10-28T11:25:24.411Z,57.77
2022-10-28T11:28:03.137Z,56.73
2022-10-28T11:30:35.311Z,52.83
2022-10-28T11:33:28.796Z,56.17
2022-10-28T11:36:01.245Z,50.10
2022-10-28T11:38:40.842Z,63.17
2022-10-28T11:41:25.146Z,56.83
2022-10-28T11:43:55.354Z,53.67
2022-10-28T11:46:30.918Z,52.17
2022-10-28T11:49:03.846Z,51.40
2022-10-28T11:51:37.350Z,62.27
2022-10-28T11:54:23.404Z,55.20
2022-10-28T11:56:57.859Z,55.07
2022-10-28T11:59:43.816Z,52.77
2022-10-28T12:02:21.507Z,50.40
2022-10-28T12:04:54.211Z,51.13
2022-10-28T12:07:46.124Z,49.33
2022-10-28T12:10:21.370Z,48.30
2022-10-28T12:12:55.314Z,51.70
2022-10-28T12:15:28.438Z,48.03
2022-10-28T12:18:00.038Z,54.40
2022-10-28T12:20:31.856Z,51.67
2022-10-28T12:23:02.002Z,54.03
2022-10-28T12:25:31.897Z,50.10
2022-10-28T12:28:03.406Z,51.43
2022-10-28T12:30:33.077Z,44.07
2022-10-28T12:33:05.662Z,48.57
2022-10-28T12:35:36.723Z,42.67
2022-10-28T12:38:10.019Z,41.97
2022-10-28T12:40:41.368Z,44.53
2022-10-28T12:43:12.730Z,46.97
2022-10-28T12:45:42.517Z,46.73
2022-10-28T12:48:15.945Z,46.67
2022-10-28T12:50:48.262Z,49.20
2022-10-28T12:53:30.386Z,53.40
2022-10-28T12:56:00.101Z,37.50
2022-10-28T12:58:32.268Z,37.77
2022-10-28T13:01:02.709Z,41.57
2022-10-28T13:03:31.123Z,35.77
2022-10-28T13:06:08.183Z,35.70
2022-10-28T13:08:54.205Z,30.03
2022-10-28T13:11:40.522Z,35.23
2022-10-28T13:14:15.805Z,35.00
2022-10-28T13:16:53.069Z,38.83
2022-10-28T13:19:29.620Z,41.03
2022-10-28T13:22:18.534Z,38.80
2022-10-28T13:24:53.821Z,42.67
2022-10-28T13:27:23.159Z,41.00
2022-10-28T13:29:54.161Z,43.47
2022-10-28T13:32:34.035Z,40.23
2022-10-28T13:35:12.400Z,36.47
2022-10-28T13:37:41.318Z,34.40
2022-10-28T13:40:22.138Z,40.03
2022-10-28T13:42:51.449Z,35.93
2022-10-28T13:45:39.461Z,39.27
2022-10-28T13:48:25.487Z,35.87
2022-10-28T13:51:15.269Z,31.20
2022-10-28T13:53:55.391Z,28.13
2022-10-28T13:56:38.711Z,28.40
2022-10-28T13:59:08.511Z,36.60
2022-10-28T14:02:01.831Z,32.97
2022-10-28T14:04:41.079Z,28.37
2022-10-28T14:07:22.558Z,33.43
2022-10-28T14:09:54.967Z,31.47
2022-10-28T14:12:26.354Z,34.40
2022-10-28T14:14:57.094Z,38.20
2022-10-28T14:17:27.899Z,29.47
2022-10-28T14:19:56.328Z,28.30
2022-10-28T14:22:33.419Z,32.97
2022-10-28T14:25:02.067Z,24.37
2022-10-28T14:27:42.091Z,36.07
2022-10-28T14:30:20.967Z,27.50
2022-10-28T14:33:05.018Z,32.10
2022-10-28T14:35:39.498Z,23.20
2022-10-28T14:38:20.999Z,24.97
2022-10-28T14:40:52.071Z,26.03
2022-10-28T14:43:40.054Z,27.40
2022-10-28T14:46:15.231Z,26.07
2022-10-28T14:48:46.843Z,28.57
2022-10-28T14:51:16.646Z,24.63
2022-10-28T14:53:47.152Z,24.23
2022-10-28T14:56:20.192Z,26.33
2022-10-28T14:58:48.832Z,21.10
2022-10-28T15:01:25.198Z,28.70
2022-10-28T15:03:54.951Z,25.30
2022-10-28T15:06:27.165Z,24.97
2022-10-28T15:08:57.687Z,23.33
2022-10-28T15:11:26.287Z,19.57
2022-10-28T15:13:54.987Z,24.07
2022-10-28T15:16:24.198Z,23.83
2022-10-28T15:18:53.212Z,23.60
2022-10-28T15:21:22.674Z,28.77
2022-10-28T15:24:01.887Z,22.93
2022-10-28T15:26:30.339Z,23.70
2022-10-28T15:28:59.305Z,25.93
2022-10-28T15:31:27.772Z,25.13
2022-10-28T15:33:56.120Z,28.30
2022-10-28T15:36:25.365Z,24.87
2022-10-28T15:38:54.395Z,24.90
2022-10-28T15:41:49.301Z,25.80
2022-10-28T15:44:29.746Z,30.30
2022-10-28T15:46:58.491Z,21.77
2022-10-28T15:49:34.043Z,20.17
2022-10-28T15:52:20.934Z,21.50
2022-10-28T15:54:56.241Z,19.00
2022-10-28T15:57:25.639Z,21.40
2022-10-28T16:00:08.825Z,23.50
2022-10-28T16:02:45.984Z,19.93
2022-10-28T16:05:29.400Z,16.70
2022-10-28T16:07:57.952Z,27.60
2022-10-28T16:10:26.561Z,20.67
2022-10-28T16:12:54.930Z,18.37
2022-10-28T16:15:23.334Z,20.17
2022-10-28T16:17:53.374Z,22.47
2022-10-28T16:20:23.770Z,24.17
2022-10-28T16:22:52.426Z,21.50
2022-10-28T16:25:21.679Z,20.37
2022-10-28T16:27:50.378Z,31.20
2022-10-28T16:30:19.261Z,28.13
2022-10-28T16:32:49.057Z,33.27
2022-10-28T16:35:19.984Z,29.27
2022-10-28T16:37:53.792Z,26.50
2022-10-28T16:43:16.098Z,23.40
2022-10-28T16:45:44.688Z,21.53
2022-10-28T16:48:13.850Z,22.47
2022-10-28T16:50:45.076Z,21.73
2022-10-28T16:53:14.427Z,25.20
2022-10-28T16:55:42.833Z,25.20
2022-10-28T16:58:11.199Z,26.10
2022-10-28T17:00:40.382Z,23.93
2022-10-28T17:03:08.947Z,18.80
2022-10-28T17:05:37.304Z,23.37
2022-10-28T17:08:09.826Z,22.97
2022-10-28T17:10:39.815Z,23.73
2022-10-28T17:13:08.782Z,23.90
2022-10-28T17:15:37.406Z,20.90
2022-10-28T17:18:05.914Z,25.30
2022-10-28T17:20:34.687Z,21.87
2022-10-28T17:23:03.023Z,23.43
2022-10-28T17:25:32.855Z,23.20
2022-10-28T17:28:01.644Z,20.30
2022-10-28T17:30:30.037Z,22.37
2022-10-28T17:32:58.447Z,24.80
2022-10-28T17:35:27.453Z,21.30
2022-10-28T17:37:57.309Z,24.33
2022-10-28T17:40:25.986Z,24.10
2022-10-28T17:42:59.431Z,26.07
2022-10-28T17:45:27.826Z,29.67
2022-10-28T17:47:56.198Z,32.53
2022-10-28T17:50:24.582Z,30.87
2022-10-28T17:52:54.521Z,33.30
2022-10-28T17:55:23.110Z,30.83
2022-10-28T17:57:51.701Z,30.73
2022-10-28T18:00:21.702Z,33.37
2022-10-28T18:02:50.230Z,34.30
2022-10-28T18:05:18.780Z,31.47
2022-10-28T18:07:47.139Z,34.60
2022-10-28T18:10:16.711Z,31.70
2022-10-28T18:12:45.054Z,34.57
2022-10-28T18:15:13.439Z,25.90
2022-10-28T18:17:43.632Z,21.93
2022-10-28T18:20:12.247Z,26.17
2022-10-28T18:22:40.593Z,25.07
2022-10-28T18:25:09.520Z,29.13
2022-10-28T18:27:38.359Z,25.67
2022-10-28T18:30:07.167Z,29.80
2022-10-28T18:32:35.570Z,30.67
2022-10-28T18:35:05.533Z,25.33
2022-10-28T18:37:33.914Z,29.70
2022-10-28T18:40:02.281Z,34.50
2022-10-28T18:42:31.075Z,30.80
2022-10-28T18:44:59.447Z,23.57
2022-10-28T18:47:27.937Z,26.67
2022-10-28T18:49:56.298Z,26.10
2022-10-28T18:52:26.027Z,24.27
2022-10-28T18:54:54.389Z,30.63
2022-10-28T18:57:22.823Z,27.07
2022-10-28T19:00:20.209Z,22.43
2022-10-28T19:02:42.197Z,25.80
2022-10-28T19:05:14.845Z,29.73
2022-10-28T19:07:44.882Z,22.70
2022-10-28T19:10:13.329Z,31.30
2022-10-28T19:12:45.041Z,32.00
2022-10-28T19:15:16.501Z,28.90
2022-10-28T19:17:44.845Z,29.30
2022-10-28T19:20:13.232Z,23.30
2022-10-28T19:22:41.656Z,23.73
2022-10-28T19:25:11.783Z,24.33
2022-10-28T19:27:40.152Z,34.33
2022-10-28T19:30:12.437Z,28.13
2022-10-28T19:32:42.213Z,38.87
2022-10-28T19:35:11.067Z,30.07
2022-10-28T19:37:39.450Z,32.73
2022-10-28T19:40:08.372Z,29.03
2022-10-28T19:42:38.953Z,30.03
2022-10-28T19:45:08.055Z,26.73
2022-10-28T19:47:36.422Z,30.50
2022-10-28T19:50:04.914Z,25.83
2022-10-28T19:52:33.262Z,28.80
2022-10-28T19:55:01.807Z,25.47
2022-10-28T19:57:30.149Z,20.10
2022-10-28T19:59:59.883Z,23.97
2022-10-28T20:02:28.345Z,24.27
2022-10-28T20:04:57.331Z,21.43
2022-10-28T20:07:25.695Z,29.20
2022-10-28T20:09:54.501Z,22.60
2022-10-28T20:12:22.928Z,26.70
2022-10-28T20:14:51.285Z,25.77
2022-10-28T20:17:21.004Z,26.47
2022-10-28T20:19:49.346Z,25.13
2022-10-28T20:22:18.083Z,25.67
2022-10-28T20:24:46.419Z,19.60
2022-10-28T20:27:14.758Z,22.17
2022-10-28T20:29:43.139Z,22.33
2022-10-28T20:32:11.539Z,27.03
2022-10-28T20:34:41.539Z,23.80
2022-10-28T20:37:09.935Z,24.97
2022-10-28T20:39:38.307Z,23.43
2022-10-28T20:42:06.691Z,21.70
2022-10-28T20:44:35.083Z,17.73
2022-10-28T20:47:03.447Z,24.20
2022-10-28T20:49:31.836Z,23.17
2022-10-28T20:52:01.562Z,24.10
2022-10-28T20:54:29.950Z,24.23
2022-10-28T20:56:58.532Z,25.77
2022-10-28T20:59:26.910Z,20.63
2022-10-28T21:01:55.360Z,18.50
2022-10-28T21:04:24.022Z,22.10
2022-10-28T21:06:52.387Z,18.93
2022-10-28T21:09:22.137Z,17.23
2022-10-28T21:11:50.522Z,23.13
2022-10-28T21:14:18.919Z,19.37
2022-10-28T21:16:47.318Z,17.27
2022-10-28T21:19:15.705Z,17.83
2022-10-28T21:21:44.099Z,19.27
2022-10-28T21:24:12.538Z,18.57
2022-10-28T21:26:42.283Z,20.50
2022-10-28T21:29:10.602Z,15.80
2022-10-28T21:31:38.969Z,21.93
2022-10-28T21:34:08.487Z,18.33
2022-10-28T21:36:37.096Z,18.87
2022-10-28T21:39:05.537Z,17.37
2022-10-28T21:41:33.874Z,18.03
2022-10-28T21:44:06.797Z,17.33
2022-10-28T21:46:35.245Z,13.80
2022-10-28T21:49:03.656Z,17.20
2022-10-28T21:51:32.024Z,19.17
2022-10-28T21:54:00.382Z,17.67
2022-10-28T21:56:28.755Z,16.23
2022-10-28T21:58:57.130Z,16.67
2022-10-28T22:01:27.013Z,14.10
2022-10-28T22:03:56.165Z,15.90
2022-10-28T22:06:24.558Z,15.40
2022-10-28T22:08:54.106Z,17.93
2022-10-28T22:11:23.445Z,18.07
2022-10-28T22:13:57.044Z,17.47
2022-10-28T22:16:26.982Z,16.20
2022-10-28T22:18:55.461Z,18.13
2022-10-28T22:21:25.379Z,16.30
2022-10-28T22:23:53.893Z,17.73
2022-10-28T22:26:23.526Z,21.20
2022-10-28T22:28:52.264Z,23.00
2022-10-28T22:31:21.792Z,18.50
2022-10-28T22:33:52.060Z,17.20
2022-10-28T22:36:21.026Z,21.30
2022-10-28T22:38:49.578Z,17.17
2022-10-28T22:41:18.443Z,18.43
2022-10-28T22:43:47.456Z,15.87
2022-10-28T22:46:17.053Z,11.13
2022-10-28T22:48:45.814Z,17.20
2022-10-28T22:51:15.873Z,12.97
2022-10-28T22:53:44.256Z,9.63
2022-10-28T22:56:15.125Z,11.03
2022-10-28T22:58:43.472Z,13.87
2022-10-28T23:01:12.719Z,16.53
2022-10-28T23:03:42.187Z,16.03
2022-10-28T23:06:11.231Z,19.20
2022-10-28T23:08:41.468Z,18.50
2022-10-28T23:11:10.248Z,21.70
2022-10-28T23:13:39.190Z,16.17
2022-10-28T23:16:08.533Z,15.80
2022-10-28T23:18:37.051Z,20.70
2022-10-28T23:21:05.851Z,17.60
2022-10-28T23:23:34.320Z,18.97
2022-10-28T23:26:04.086Z,13.70
2022-10-28T23:28:32.473Z,13.27
2022-10-28T23:31:01.768Z,13.73
2022-10-28T23:33:30.901Z,14.20
2022-10-28T23:35:59.778Z,18.47
2022-10-28T23:38:28.535Z,12.63
2022-10-28T23:41:00.386Z,13.27
2022-10-28T23:43:30.562Z,19.73
2022-10-28T23:45:59.511Z,14.37
2022-10-28T23:48:28.279Z,15.17
2022-10-28T23:50:57.059Z,11.70
2022-10-28T23:53:25.909Z,14.03
2022-10-28T23:55:54.578Z,15.43
2022-10-28T23:58:23.639Z,12.60
